Time;durP1;ratioP1;P1;durP2;ratioP2;P2;SDS_P1;SDS_P2;PMS_P1;PMS_P2;Temp;Humidity;BMP_temperature;BMP_pressure;BME280_temperature;BME280_humidity;BME280_pressure;Samples;Min_cycle;Max_cycle;Signal;HPM_P1;HPM_P2
2022/05/06 00:00:34;;;;;;;5.40;3.67;;;;;;;10.05;64.02;101132.09;5058425;28;20049;-78
2022/05/06 00:03:01;;;;;;;4.53;4.10;;;;;;;10.04;63.92;101133.25;5055833;28;20049;-78
2022/05/06 00:05:31;;;;;;;4.93;3.95;;;;;;;10.00;64.26;101126.63;5058453;28;20053;-78
2022/05/06 00:08:00;;;;;;;5.40;3.85;;;;;;;9.95;64.57;101135.84;5057851;28;20053;-77
2022/05/06 00:10:27;;;;;;;7.88;4.30;;;;;;;9.94;64.61;101136.13;5057808;28;20064;-78
2022/05/06 00:12:55;;;;;;;5.28;3.90;;;;;;;9.89;64.38;101139.81;5057552;28;20048;-78
2022/05/06 00:15:22;;;;;;;6.05;3.67;;;;;;;9.87;64.15;101135.63;5039291;28;20057;-78
2022/05/06 00:17:49;;;;;;;6.03;3.80;;;;;;;9.81;63.86;101143.22;5038350;28;20056;-78
2022/05/06 00:20:17;;;;;;;4.88;3.55;;;;;;;9.74;63.82;101138.00;5042157;28;20052;-78
2022/05/06 00:22:46;;;;;;;5.05;3.72;;;;;;;9.68;64.47;101141.09;5056342;28;20045;-78
2022/05/06 00:25:13;;;;;;;5.60;4.05;;;;;;;9.63;64.51;101136.41;5072649;28;20057;-78
2022/05/06 00:27:41;;;;;;;5.20;3.80;;;;;;;9.61;64.35;101137.84;5077364;28;20052;-78
2022/05/06 00:30:10;;;;;;;5.55;4.07;;;;;;;9.55;65.09;101139.81;5056729;28;20049;-77
2022/05/06 00:32:38;;;;;;;6.03;4.00;;;;;;;9.50;65.52;101134.31;5056771;28;20045;-78
2022/05/06 00:35:06;;;;;;;5.47;3.75;;;;;;;9.45;64.85;101137.13;5057941;28;20060;-78
2022/05/06 00:37:33;;;;;;;5.50;4.05;;;;;;;9.41;65.26;101139.69;5055384;28;20064;-78
2022/05/06 00:40:03;;;;;;;6.22;3.97;;;;;;;9.39;64.75;101146.66;5057709;28;20127;-78
2022/05/06 00:42:30;;;;;;;7.68;4.88;;;;;;;9.36;65.25;101134.13;5058030;28;20060;-78
2022/05/06 00:44:57;;;;;;;6.72;4.60;;;;;;;9.32;65.18;101136.69;5066710;28;20428;-77
2022/05/06 00:47:27;;;;;;;6.13;4.38;;;;;;;9.30;65.66;101138.94;5051988;28;20107;-78
2022/05/06 00:49:55;;;;;;;6.50;4.55;;;;;;;9.27;65.98;101139.50;5055072;28;20056;-78
2022/05/06 00:52:22;;;;;;;5.55;4.18;;;;;;;9.27;66.10;101133.94;5056410;28;20059;-78
2022/05/06 00:54:52;;;;;;;5.70;4.35;;;;;;;9.26;65.78;101137.84;5056473;28;20411;-78
2022/05/06 00:57:21;;;;;;;7.07;4.57;;;;;;;9.23;65.76;101143.16;5055408;28;20416;-78
2022/05/06 01:02:33;;;;;;;7.20;4.82;;;;;;;9.17;66.59;101134.00;5056559;28;20507;-78
2022/05/06 01:05:02;;;;;;;7.72;5.40;;;;;;;9.15;66.46;101139.03;5056733;28;20049;-78
2022/05/06 01:07:30;;;;;;;5.65;4.25;;;;;;;9.14;66.42;101140.16;5056056;28;20404;-78
2022/05/06 01:09:58;;;;;;;6.22;4.90;;;;;;;9.11;66.93;101133.22;5056771;28;20401;-79
2022/05/06 01:12:26;;;;;;;5.10;3.92;;;;;;;9.10;65.97;101130.72;5057111;28;20382;-78
2022/05/06 01:14:54;;;;;;;5.47;4.40;;;;;;;9.06;66.60;101138.81;5056644;28;20052;-78
2022/05/06 01:17:22;;;;;;;5.72;4.40;;;;;;;9.04;66.57;101137.44;5055325;28;20045;-78
2022/05/06 01:19:49;;;;;;;8.85;4.35;;;;;;;9.03;66.67;101144.94;5056835;28;20045;-78
2022/05/06 01:22:18;;;;;;;5.88;4.28;;;;;;;9.00;66.03;101145.50;5055855;28;20064;-77
2022/05/06 01:24:46;;;;;;;5.95;4.65;;;;;;;8.99;65.56;101141.09;5055197;28;20052;-78
2022/05/06 01:27:17;;;;;;;5.40;4.10;;;;;;;8.97;65.72;101140.53;5055876;28;20045;-78
2022/05/06 01:29:48;;;;;;;5.90;4.18;;;;;;;8.94;66.72;101141.09;5056589;28;20049;-78
2022/05/06 01:32:17;;;;;;;6.13;4.45;;;;;;;8.89;66.38;101143.91;5055066;28;20056;-78
2022/05/06 01:34:45;;;;;;;5.47;4.45;;;;;;;8.89;66.67;101141.97;5056070;28;20056;-78
2022/05/06 01:37:14;;;;;;;4.85;3.70;;;;;;;8.89;66.06;101141.13;5056021;28;20055;-79
2022/05/06 01:39:48;;;;;;;6.80;4.38;;;;;;;8.84;66.58;101143.94;5057268;28;20048;-78
2022/05/06 01:42:18;;;;;;;6.13;4.40;;;;;;;8.82;66.28;101143.38;5055660;28;20056;-77
2022/05/06 01:44:49;;;;;;;6.65;4.53;;;;;;;8.79;66.70;101146.75;5054629;28;20060;-77
2022/05/06 01:47:21;;;;;;;6.38;4.50;;;;;;;8.78;66.51;101143.16;5056052;28;20060;-77
2022/05/06 01:49:50;;;;;;;6.47;4.40;;;;;;;8.76;66.77;101148.16;5056012;28;20064;-77
2022/05/06 01:52:18;;;;;;;5.95;4.47;;;;;;;8.72;66.27;101145.13;5055193;28;20056;-78
2022/05/06 01:54:47;;;;;;;6.00;4.60;;;;;;;8.69;67.20;101148.47;5055158;28;20048;-78
2022/05/06 01:57:18;;;;;;;6.53;5.03;;;;;;;8.66;66.47;101145.44;5054688;28;20056;-77
2022/05/06 01:59:45;;;;;;;6.07;4.35;;;;;;;8.60;66.88;101150.16;5055971;28;20068;-78
2022/05/06 02:02:13;;;;;;;5.63;4.45;;;;;;;8.60;67.24;101149.34;5055731;28;20049;-77
2022/05/06 02:07:25;;;;;;;7.50;5.20;;;;;;;8.57;67.72;101147.97;5061884;28;20397;-77
2022/05/06 02:09:54;;;;;;;5.63;4.40;;;;;;;8.57;66.95;101153.53;5055513;28;20351;-77
2022/05/06 02:12:21;;;;;;;6.97;4.63;;;;;;;8.56;66.73;101137.97;5054113;28;20061;-77
2022/05/06 02:14:49;;;;;;;6.30;4.63;;;;;;;8.53;66.76;101150.47;5055478;28;20053;-77
2022/05/06 02:17:16;;;;;;;5.70;4.63;;;;;;;8.49;66.52;101143.00;5055549;28;20056;-77
2022/05/06 02:19:43;;;;;;;6.35;4.72;;;;;;;8.47;66.75;101146.06;5056367;28;20049;-77
2022/05/06 02:22:11;;;;;;;5.47;4.65;;;;;;;8.47;66.94;101148.84;5054429;28;20064;-77
2022/05/06 02:24:38;;;;;;;6.13;4.45;;;;;;;8.44;66.97;101149.41;5053483;28;20095;-77
2022/05/06 02:27:07;;;;;;;7.90;5.22;;;;;;;8.43;66.89;101149.69;5054931;28;20489;-78
2022/05/06 02:29:35;;;;;;;8.82;4.90;;;;;;;8.39;67.65;101148.56;5054757;28;20049;-78
2022/05/06 02:34:47;;;;;;;5.75;4.60;;;;;;;8.39;66.30;101154.94;5059198;28;20405;-78
2022/05/06 02:37:14;;;;;;;6.72;4.40;;;;;;;8.31;66.81;101156.34;5054456;28;20052;-78
2022/05/06 02:39:41;;;;;;;8.18;5.20;;;;;;;8.27;67.41;101165.53;5054546;28;20045;-78
2022/05/06 02:42:10;;;;;;;6.43;5.00;;;;;;;8.24;66.77;101163.31;5054515;28;20064;-78
2022/05/06 02:44:38;;;;;;;7.33;4.53;;;;;;;8.20;67.47;101159.44;5054844;28;20053;-78
2022/05/06 02:47:06;;;;;;;7.22;5.00;;;;;;;8.12;67.85;101155.28;5054824;28;20056;-78
2022/05/06 02:49:33;;;;;;;6.60;5.43;;;;;;;8.12;67.38;101158.88;5054644;28;20056;-78
2022/05/06 02:52:00;;;;;;;8.57;5.82;;;;;;;8.12;67.48;101152.53;5054275;28;20057;-78
2022/05/06 02:54:29;;;;;;;6.38;5.05;;;;;;;8.11;67.53;101157.25;5053196;28;20060;-78
2022/05/06 02:56:58;;;;;;;7.20;5.43;;;;;;;8.10;67.81;101149.19;5054660;28;20053;-79
2022/05/06 02:59:27;;;;;;;6.40;5.65;;;;;;;8.07;67.76;101150.59;5056382;28;20174;-78
2022/05/06 03:01:54;;;;;;;6.88;5.28;;;;;;;8.08;68.36;101155.03;5055126;28;20049;-78
2022/05/06 03:04:22;;;;;;;9.05;5.70;;;;;;;8.07;67.45;101152.53;5042991;28;20049;-78
2022/05/06 03:06:49;;;;;;;8.23;5.40;;;;;;;8.05;68.38;101150.03;5052772;28;20421;-78
2022/05/06 03:09:16;;;;;;;6.57;5.30;;;;;;;8.03;67.91;101146.72;5053647;28;20056;-78
2022/05/06 03:11:45;;;;;;;6.88;5.03;;;;;;;8.03;67.87;101143.94;5054768;28;20049;-78
2022/05/06 03:14:13;;;;;;;6.13;4.80;;;;;;;8.02;67.19;101145.06;5056375;28;20057;-78
2022/05/06 03:16:41;;;;;;;8.02;5.00;;;;;;;7.97;66.85;101141.47;5058095;28;20052;-78
2022/05/06 03:19:09;;;;;;;6.18;5.40;;;;;;;7.92;67.64;101145.09;5057633;28;20064;-78
2022/05/06 03:21:36;;;;;;;7.13;5.57;;;;;;;7.90;67.80;101147.31;5066596;28;20052;-78
2022/05/06 03:24:05;;;;;;;6.97;5.55;;;;;;;7.90;68.09;101150.09;5055491;28;20056;-78
2022/05/06 03:26:32;;;;;;;5.90;5.13;;;;;;;7.90;67.81;101152.84;5058018;28;20057;-78
2022/05/06 03:28:59;;;;;;;8.10;6.03;;;;;;;7.88;67.62;101141.22;5057943;28;20056;-78
2022/05/06 03:31:27;;;;;;;9.00;6.32;;;;;;;7.85;68.17;101139.84;5057942;28;20120;-78
2022/05/06 03:33:57;;;;;;;9.55;6.07;;;;;;;7.83;67.59;101141.19;5058186;28;20065;-78
2022/05/06 03:36:25;;;;;;;8.75;5.55;;;;;;;7.81;67.39;101147.03;5057966;28;20049;-77
2022/05/06 03:38:52;;;;;;;8.30;5.82;;;;;;;7.81;67.84;101138.72;5056995;28;20413;-78
2022/05/06 03:41:20;;;;;;;6.53;5.65;;;;;;;7.82;67.47;101137.59;5058564;28;20060;-78
2022/05/06 03:43:47;;;;;;;8.30;5.90;;;;;;;7.78;67.90;101149.53;5058174;28;20049;-78
2022/05/06 03:46:14;;;;;;;7.45;5.22;;;;;;;7.75;67.51;101145.38;5058816;28;20405;-77
2022/05/06 03:48:42;;;;;;;8.13;5.78;;;;;;;7.73;67.17;101142.06;5057853;28;20060;-78
2022/05/06 03:51:22;;;;;;;7.60;6.10;;;;;;;7.71;67.62;101153.44;5057562;28;20053;-77
2022/05/06 03:53:49;;;;;;;7.35;5.88;;;;;;;7.72;67.81;101154.25;5057369;28;20053;-78
2022/05/06 03:56:18;;;;;;;6.50;5.10;;;;;;;7.70;67.73;101148.97;5057473;28;20053;-78
2022/05/06 03:58:45;;;;;;;6.60;4.97;;;;;;;7.71;67.76;101147.88;5058260;28;20511;-78
2022/05/06 04:01:16;;;;;;;7.22;5.47;;;;;;;7.68;67.95;101153.97;5056714;28;20155;-78
2022/05/06 04:03:43;;;;;;;7.35;5.35;;;;;;;7.66;68.11;101153.41;5057554;28;20053;-77
2022/05/06 04:06:13;;;;;;;7.82;5.25;;;;;;;7.64;67.92;101154.81;5057877;28;20060;-78
2022/05/06 04:08:41;;;;;;;5.85;4.70;;;;;;;7.61;68.18;101158.16;5057986;28;20064;-78
2022/05/06 04:11:09;;;;;;;7.65;5.40;;;;;;;7.63;67.94;101161.47;5057125;28;20053;-78
2022/05/06 04:13:36;;;;;;;5.32;4.75;;;;;;;7.66;67.98;101158.13;5056827;28;20056;-78
2022/05/06 04:16:04;;;;;;;7.45;5.20;;;;;;;7.67;68.31;101163.41;5057722;28;20049;-78
2022/05/06 04:18:32;;;;;;;7.90;5.10;;;;;;;7.71;68.15;101164.50;5056515;28;20519;-78
2022/05/06 04:24:00;;;;;;;9.30;5.50;;;;;;;7.75;68.42;101164.81;4996399;28;20050;-78
2022/05/06 04:26:28;;;;;;;8.18;5.50;;;;;;;7.78;67.91;101166.19;4994725;28;20500;-79
2022/05/06 04:28:55;;;;;;;7.32;6.00;;;;;;;7.79;67.95;101160.34;5021997;28;20049;-78
2022/05/06 04:31:22;;;;;;;7.30;5.50;;;;;;;7.83;68.61;101171.69;5056885;28;20080;-78
2022/05/06 04:33:50;;;;;;;7.57;5.70;;;;;;;7.90;69.61;101175.03;5056620;28;20128;-78
2022/05/06 04:36:17;;;;;;;11.57;6.32;;;;;;;7.93;69.48;101183.63;5057330;28;20056;-78
2022/05/06 04:38:44;;;;;;;9.52;6.80;;;;;;;8.07;69.49;101177.50;5057116;28;20056;-78
2022/05/06 04:41:14;;;;;;;8.25;6.20;;;;;;;8.14;68.89;101176.09;5058905;28;20049;-79
2022/05/06 04:43:41;;;;;;;7.75;6.07;;;;;;;8.21;68.31;101177.75;5059604;28;20061;-79
2022/05/06 04:46:08;;;;;;;7.47;5.65;;;;;;;8.27;67.26;101184.94;5058882;28;20053;-79
2022/05/06 04:48:35;;;;;;;7.28;5.18;;;;;;;8.32;67.53;101185.78;5058846;28;20072;-78
2022/05/06 04:51:04;;;;;;;7.47;5.28;;;;;;;8.34;67.50;101183.56;5039044;28;20065;-78
2022/05/06 04:53:31;;;;;;;7.53;5.18;;;;;;;8.40;66.76;101187.16;5046313;28;20061;-78
2022/05/06 04:56:01;;;;;;;8.02;5.75;;;;;;;8.41;66.88;101183.28;5056337;28;20037;-78
2022/05/06 04:58:30;;;;;;;8.18;5.80;;;;;;;8.39;66.61;101185.47;5056664;28;20048;-78
2022/05/06 05:00:57;;;;;;;7.78;5.47;;;;;;;8.40;67.23;101189.94;5057728;28;20400;-78
2022/05/06 05:03:25;;;;;;;8.25;5.97;;;;;;;8.45;66.88;101195.47;5056806;28;20057;-78
2022/05/06 05:05:52;;;;;;;6.60;5.45;;;;;;;8.49;67.30;101196.59;5051577;28;20080;-78
2022/05/06 05:08:19;;;;;;;7.25;5.72;;;;;;;8.54;66.95;101198.50;5052908;28;20056;-78
2022/05/06 05:10:47;;;;;;;8.18;6.43;;;;;;;8.55;67.17;101197.41;5036947;28;20049;-77
2022/05/06 05:13:14;;;;;;;9.32;5.85;;;;;;;8.65;67.05;101204.84;5046101;28;20053;-78
2022/05/06 05:15:43;;;;;;;8.90;6.22;;;;;;;8.73;66.91;101204.25;5056616;28;20408;-78
2022/05/06 05:18:10;;;;;;;9.13;5.80;;;;;;;8.79;67.19;101199.53;5055926;28;20049;-78
2022/05/06 05:20:38;;;;;;;8.35;5.70;;;;;;;8.84;67.08;101203.13;5045981;28;20045;-78
2022/05/06 05:23:05;;;;;;;7.90;6.15;;;;;;;8.93;66.99;101204.19;5045740;28;20048;-78
2022/05/06 05:25:32;;;;;;;6.22;5.40;;;;;;;9.03;66.77;101206.09;5055336;28;20049;-78
2022/05/06 05:28:00;;;;;;;9.10;6.15;;;;;;;9.17;66.38;101200.72;5047919;28;20072;-78
2022/05/06 05:30:27;;;;;;;9.10;6.43;;;;;;;9.26;66.75;101204.56;5050334;28;20041;-78
2022/05/06 05:32:56;;;;;;;10.15;6.45;;;;;;;9.30;66.39;101200.09;5055845;28;20056;-78
2022/05/06 05:35:23;;;;;;;7.53;6.10;;;;;;;9.39;65.83;101197.53;5054254;28;20057;-78
2022/05/06 05:37:50;;;;;;;8.02;5.72;;;;;;;9.48;65.83;101200.53;5044700;28;20048;-78
2022/05/06 05:40:18;;;;;;;8.27;6.72;;;;;;;9.56;65.82;101202.69;5036743;28;20485;-78
2022/05/06 05:42:45;;;;;;;7.68;6.38;;;;;;;9.64;65.83;101207.63;5038066;28;20049;-78
2022/05/06 05:50:43;;;;;;;9.85;6.82;;;;;;;9.91;65.53;101206.28;5043554;28;20052;-78
2022/05/06 05:53:11;;;;;;;8.40;7.22;;;;;;;9.99;65.10;101208.44;5048726;28;20505;-78
2022/05/06 05:55:38;;;;;;;8.38;6.40;;;;;;;10.11;65.06;101208.06;5052431;28;20056;-78
2022/05/06 05:58:12;;;;;;;8.75;6.68;;;;;;;10.24;65.09;101212.91;5039476;28;20160;-79
2022/05/06 06:00:39;;;;;;;11.13;7.20;;;;;;;10.34;64.82;101206.47;5056279;28;20056;-78
2022/05/06 06:03:08;;;;;;;6.97;6.18;;;;;;;10.45;64.79;101212.75;5053701;28;20049;-77
2022/05/06 06:05:35;;;;;;;8.45;6.07;;;;;;;10.48;65.26;101213.00;5052347;28;20051;-77
2022/05/06 06:08:04;;;;;;;9.02;6.32;;;;;;;10.51;65.12;101209.59;5056964;28;20076;-78
2022/05/06 06:10:34;;;;;;;10.27;5.90;;;;;;;10.70;64.85;101208.84;5055348;28;20053;-78
2022/05/06 06:13:04;;;;;;;10.00;7.03;;;;;;;10.85;64.83;101210.59;5051242;28;20057;-77
2022/05/06 06:15:31;;;;;;;8.48;7.00;;;;;;;10.97;64.82;101208.22;5052623;28;20432;-77
2022/05/06 06:18:01;;;;;;;7.70;6.53;;;;;;;11.11;64.83;101211.09;5054410;28;20057;-79
2022/05/06 06:20:30;;;;;;;9.60;6.45;;;;;;;11.25;64.46;101200.03;5051095;28;20045;-77
2022/05/06 06:22:57;;;;;;;7.85;7.05;;;;;;;11.31;64.66;101202.44;5053667;28;20056;-80
2022/05/06 06:25:25;;;;;;;9.30;7.20;;;;;;;11.48;64.02;101203.88;5056838;28;20053;-79
2022/05/06 06:27:52;;;;;;;8.80;6.45;;;;;;;11.62;63.37;101207.53;5059908;28;20425;-79
2022/05/06 06:30:19;;;;;;;7.97;6.57;;;;;;;11.73;63.04;101197.03;5052852;28;20051;-78
2022/05/06 06:32:46;;;;;;;8.80;7.00;;;;;;;11.81;63.43;101201.94;5054785;28;20059;-78
2022/05/06 06:35:14;;;;;;;9.50;7.07;;;;;;;11.98;62.61;101209.78;5055447;28;20459;-79
2022/05/06 06:37:43;;;;;;;10.85;6.82;;;;;;;12.13;62.22;101206.69;5055062;28;20048;-78
2022/05/06 06:40:11;;;;;;;10.77;6.77;;;;;;;12.25;62.64;101210.97;5054538;28;20488;-77
2022/05/06 06:42:41;;;;;;;8.20;6.22;;;;;;;12.42;62.12;101211.22;5050087;28;20076;-77
2022/05/06 06:45:08;;;;;;;;;;;;;;;12.44;62.49;101210.91;5056090;28;20053;-82
2022/05/06 06:47:36;;;;;;;8.52;6.97;;;;;;;12.66;61.54;101222.22;5054762;28;19931;-80
2022/05/06 06:50:07;;;;;;;9.10;6.47;;;;;;;12.85;61.25;101222.09;5058252;28;20055;-80
2022/05/06 06:52:35;;;;;;;10.25;6.25;;;;;;;12.98;60.61;101212.88;5054167;28;20056;-80
2022/05/06 06:55:03;;;;;;;9.02;6.20;;;;;;;13.14;60.44;101220.91;5054688;28;20045;-77
2022/05/06 06:57:31;;;;;;;11.35;5.80;;;;;;;13.29;59.76;101222.56;5055454;28;20115;-81
2022/05/06 06:59:59;;;;;;;8.90;6.22;;;;;;;13.40;59.74;101222.03;5055408;28;20057;-82
2022/05/06 07:02:26;;;;;;;7.47;5.95;;;;;;;13.55;59.44;101218.03;5050951;28;20565;-79
2022/05/06 07:04:53;;;;;;;7.22;6.18;;;;;;;13.70;58.53;101216.03;5058467;28;20587;-79
2022/05/06 07:12:54;;;;;;;8.50;5.72;;;;;;;14.21;56.46;101217.50;5054086;28;20056;-80
2022/05/06 07:15:22;;;;;;;10.70;6.53;;;;;;;14.35;56.48;101223.84;5055706;28;20497;-79
2022/05/06 07:17:50;;;;;;;10.15;6.22;;;;;;;14.56;56.58;101210.13;5057495;28;20057;-79
2022/05/06 07:20:17;;;;;;;7.95;5.90;;;;;;;14.83;56.07;101216.69;5056222;28;20060;-80
2022/05/06 07:22:44;;;;;;;9.02;5.60;;;;;;;15.42;54.22;101214.31;5056832;28;20053;-80
2022/05/06 07:25:13;;;;;;;7.65;5.65;;;;;;;16.10;52.03;101210.97;5057831;28;20402;-79
2022/05/06 07:27:41;;;;;;;7.82;5.90;;;;;;;16.75;50.38;101208.13;5056047;28;20064;-81
2022/05/06 07:30:11;;;;;;;6.38;5.57;;;;;;;17.35;49.42;101203.31;5058326;28;20068;-80
2022/05/06 07:32:39;;;;;;;7.18;5.32;;;;;;;18.17;48.21;101197.94;5066232;28;20053;-80
2022/05/06 07:35:08;;;;;;;6.85;5.38;;;;;;;18.88;46.97;101206.41;5056845;28;20052;-81
2022/05/06 07:37:36;;;;;;;6.55;4.88;;;;;;;19.50;45.67;101207.97;5055577;28;20056;-81
2022/05/06 07:40:05;;;;;;;7.63;4.78;;;;;;;20.35;42.39;101194.66;5055160;28;20049;-81
2022/05/06 07:42:34;;;;;;;6.65;4.72;;;;;;;20.92;40.85;101203.81;5056781;28;20148;-81
2022/05/06 07:45:02;;;;;;;9.60;5.68;;;;;;;21.75;39.32;101200.81;5054901;28;20497;-80
2022/05/06 07:47:30;;;;;;;6.97;4.90;;;;;;;22.65;38.47;101196.88;5054117;28;20405;-82
2022/05/06 07:49:58;;;;;;;7.47;4.80;;;;;;;23.60;37.08;101198.75;5054631;28;20053;-82
2022/05/06 07:52:25;;;;;;;6.00;4.43;;;;;;;24.47;35.52;101200.56;5052650;28;20053;-81
2022/05/06 07:54:52;;;;;;;7.97;4.80;;;;;;;25.44;33.39;101190.72;5055262;28;20052;-82
2022/05/06 07:57:20;;;;;;;6.10;4.05;;;;;;;26.28;32.55;101184.94;5058815;28;20049;-81
2022/05/06 07:59:49;;;;;;;8.10;4.85;;;;;;;27.09;30.68;101184.56;5053303;28;20061;-81
2022/05/06 08:05:01;;;;;;;7.30;4.90;;;;;;;28.72;28.63;101189.13;5002550;28;20061;-82
2022/05/06 08:07:28;;;;;;;6.03;4.03;;;;;;;29.51;27.14;101186.28;5013376;28;20061;-80
2022/05/06 08:09:57;;;;;;;6.25;3.60;;;;;;;30.37;25.86;101178.63;5023949;28;20077;-81
2022/05/06 08:12:25;;;;;;;;;;;;;;;30.74;23.99;101183.34;5021805;28;20422;-80
2022/05/06 08:14:54;;;;;;;6.90;4.32;;;;;;;31.43;23.61;101185.81;5016041;28;19933;-83
2022/05/06 08:17:21;;;;;;;;;;;;;;;31.71;22.46;101180.72;5021373;28;20054;-81
2022/05/06 08:19:48;;;;;;;4.95;4.03;;;;;;;32.48;21.34;101178.56;5020716;28;19925;-81
2022/05/06 08:22:16;;;;;;;8.35;4.53;;;;;;;33.18;20.85;101174.31;5019870;28;20057;-80
2022/05/06 08:24:43;;;;;;;6.43;4.50;;;;;;;33.70;19.88;101172.44;5008911;28;20053;-82
2022/05/06 08:27:11;;;;;;;5.97;4.30;;;;;;;34.17;18.75;101166.88;5011091;28;20046;-82
2022/05/06 08:29:39;;;;;;;6.68;4.45;;;;;;;34.80;17.58;101167.28;5014715;28;20050;-83
2022/05/06 08:32:08;;;;;;;5.50;4.20;;;;;;;35.64;17.04;101168.81;5014980;28;20153;-82
2022/05/06 08:34:37;;;;;;;5.25;3.45;;;;;;;36.20;16.34;101169.97;5009201;28;20050;-83
2022/05/06 08:37:04;;;;;;;7.32;4.03;;;;;;;36.72;15.35;101165.31;5027221;28;20053;-83
2022/05/06 08:39:32;;;;;;;5.57;4.20;;;;;;;37.41;14.11;101168.94;5011949;28;20056;-82
2022/05/06 08:42:03;;;;;;;7.00;4.30;;;;;;;38.09;13.71;101165.75;5016613;28;20042;-82
2022/05/06 08:52:50;;;;;;;6.57;4.18;;;;;;;41.13;11.75;101162.75;5034512;28;20053;-80
2022/05/06 08:55:18;;;;;;;5.60;4.70;;;;;;;41.76;10.27;101156.28;5003186;28;20065;-80
2022/05/06 08:57:46;;;;;;;;;;;;;;;42.12;10.55;101164.88;5016117;28;20073;-82
2022/05/06 09:00:15;;;;;;;5.38;4.25;;;;;;;42.83;9.96;101164.25;5016494;28;20275;-81
2022/05/06 09:02:44;;;;;;;4.57;3.95;;;;;;;43.46;9.77;101152.25;5019335;28;20050;-80
2022/05/06 09:05:16;;;;;;;6.57;5.05;;;;;;;43.78;9.13;101154.97;5051821;28;20474;-79
2022/05/06 09:07:54;;;;;;;6.88;4.82;;;;;;;43.96;9.81;101150.72;5057605;28;20520;-80
2022/05/06 09:10:21;;;;;;;4.80;4.35;;;;;;;44.34;9.32;101154.97;5048897;28;20052;-81
2022/05/06 09:12:55;;;;;;;5.28;4.60;;;;;;;43.95;9.50;101149.94;5055741;28;20049;-81
2022/05/06 09:18:10;;;;;;;5.35;4.72;;;;;;;43.78;9.88;101149.09;5062590;28;20507;-79
2022/05/06 09:20:40;;;;;;;5.22;4.57;;;;;;;44.18;9.52;101141.91;5055576;28;20420;-79
2022/05/06 09:23:23;;;;;;;5.95;4.80;;;;;;;44.87;9.53;101148.44;5056331;28;20045;-83
2022/05/06 09:25:52;;;;;;;6.47;4.85;;;;;;;45.03;8.99;101150.50;5057916;28;20136;-80
2022/05/06 09:28:28;;;;;;;5.88;5.10;;;;;;;44.46;8.83;101149.06;5056135;28;20044;-78
2022/05/06 09:31:05;;;;;;;6.20;5.40;;;;;;;43.71;9.40;101146.72;5059937;28;20064;-78
2022/05/06 09:33:35;;;;;;;6.18;5.60;;;;;;;44.48;8.63;101141.34;5060262;28;20124;-78
2022/05/06 09:36:24;;;;;;;7.53;5.47;;;;;;;44.86;8.97;101140.94;5060321;28;20060;-79
2022/05/06 09:39:02;;;;;;;7.40;4.82;;;;;;;44.09;9.73;101139.25;5060295;28;20063;-79
2022/05/06 09:41:29;;;;;;;5.07;4.43;;;;;;;44.60;9.21;101139.16;5072519;28;20071;-79
2022/05/06 09:44:00;;;;;;;6.03;4.57;;;;;;;44.88;9.18;101136.16;5079638;28;20049;-79
2022/05/06 09:46:27;;;;;;;4.10;3.80;;;;;;;45.34;9.15;101145.53;5067890;28;20064;-78
2022/05/06 09:48:56;;;;;;;5.90;4.93;;;;;;;45.82;8.68;101135.28;5058177;28;20053;-79
2022/05/06 09:51:27;;;;;;;5.22;4.75;;;;;;;45.75;9.20;101130.81;5059031;28;20167;-78
2022/05/06 09:53:55;;;;;;;6.07;5.45;;;;;;;45.18;8.24;101144.28;5059730;28;20049;-79
2022/05/06 09:56:24;;;;;;;7.60;5.35;;;;;;;45.62;8.88;101129.81;5058951;28;20045;-79
2022/05/06 09:58:56;;;;;;;5.22;4.72;;;;;;;45.93;8.53;101128.53;5057975;28;20060;-79
2022/05/06 10:01:24;;;;;;;7.18;5.80;;;;;;;46.27;8.16;101134.09;5056545;28;20072;-79
2022/05/06 10:03:54;;;;;;;5.15;4.43;;;;;;;46.58;8.22;101136.44;5052344;28;20057;-81
2022/05/06 10:06:25;;;;;;;4.60;4.20;;;;;;;46.93;7.77;101128.75;5053352;28;20062;-80
2022/05/06 10:08:58;;;;;;;5.05;4.60;;;;;;;47.29;7.93;101140.34;5055114;28;20049;-79
2022/05/06 10:11:28;;;;;;;5.28;4.70;;;;;;;47.25;7.62;101139.91;5056365;28;20076;-80
2022/05/06 10:13:58;;;;;;;5.47;4.28;;;;;;;45.93;7.55;101131.47;5049508;28;20053;-80
2022/05/06 10:16:35;;;;;;;5.60;4.82;;;;;;;46.61;7.84;101131.56;5058505;28;20057;-80
2022/05/06 10:19:03;;;;;;;5.45;4.50;;;;;;;46.79;7.32;101133.00;5057088;28;20053;-79
2022/05/06 10:21:52;;;;;;;6.28;4.70;;;;;;;46.46;7.83;101119.44;5046389;28;20061;-79
2022/05/06 10:24:20;;;;;;;5.85;4.63;;;;;;;46.38;8.31;101119.22;5046641;28;20056;-79
2022/05/06 10:26:48;;;;;;;5.20;4.35;;;;;;;46.28;7.97;101120.94;5058944;28;20048;-83
2022/05/06 10:32:52;;;;;;;;;;;;;;;43.52;9.44;101117.06;5026298;28;20067;-78
2022/05/06 10:35:20;;;;;;;5.03;4.53;;;;;;;42.14;10.16;101118.31;5043245;28;19936;-79
2022/05/06 10:37:52;;;;;;;5.15;4.63;;;;;;;40.57;11.40;101116.09;5051049;28;20075;-78
2022/05/06 10:40:31;;;;;;;6.68;5.40;;;;;;;40.21;11.66;101116.59;5063331;28;20049;-79
2022/05/06 10:43:00;;;;;;;5.95;4.70;;;;;;;40.03;11.88;101115.53;5060768;28;20052;-78
2022/05/06 10:45:29;;;;;;;;;;;;;;;39.89;11.64;101119.28;5060331;28;20056;-78
2022/05/06 10:47:57;;;;;;;5.47;4.97;;;;;;;41.04;10.83;101124.13;5059708;28;19935;-77
2022/05/06 10:50:29;;;;;;;5.38;4.85;;;;;;;41.74;10.82;101115.03;5049835;28;20052;-77
2022/05/06 10:53:01;;;;;;;5.82;4.57;;;;;;;42.81;9.77;101106.16;5049534;28;20441;-77
2022/05/06 10:55:28;;;;;;;4.30;3.90;;;;;;;43.41;9.46;101114.09;5052112;28;20060;-77
2022/05/06 10:58:01;;;;;;;4.20;3.80;;;;;;;44.04;9.05;101103.97;5049064;28;20072;-77
2022/05/06 11:00:32;;;;;;;4.60;4.07;;;;;;;44.37;9.25;101101.03;5061676;28;20056;-82
2022/05/06 11:03:00;;;;;;;4.10;3.40;;;;;;;45.14;8.85;101102.59;5062706;28;20049;-80
2022/05/06 11:05:30;;;;;;;4.20;3.80;;;;;;;45.19;8.83;101098.78;5058310;28;20056;-81
2022/05/06 11:08:02;;;;;;;4.75;4.00;;;;;;;45.89;8.51;101090.53;5061172;28;20053;-82
2022/05/06 11:10:33;;;;;;;6.22;4.20;;;;;;;46.24;8.06;101103.56;5052722;28;20057;-80
2022/05/06 11:13:01;;;;;;;4.65;3.97;;;;;;;45.62;9.25;101094.50;5059796;28;20064;-80
2022/05/06 11:15:31;;;;;;;5.00;3.75;;;;;;;46.33;8.88;101100.28;5055257;28;20053;-80
2022/05/06 11:18:01;;;;;;;4.75;4.05;;;;;;;46.48;8.22;101102.00;5059948;28;20055;-81
2022/05/06 11:20:31;;;;;;;5.03;4.20;;;;;;;46.26;8.03;101100.88;5061035;28;20068;-81
2022/05/06 11:23:03;;;;;;;5.38;4.88;;;;;;;46.32;8.12;101098.66;5062534;28;20053;-82
2022/05/06 11:25:33;;;;;;;5.80;4.43;;;;;;;44.46;9.43;101084.44;5062117;28;20059;-82
2022/05/06 11:28:02;;;;;;;5.13;4.32;;;;;;;43.06;9.51;101088.97;5059643;28;20053;-82
2022/05/06 11:30:31;;;;;;;5.97;4.53;;;;;;;42.10;9.95;101091.41;5059052;28;20057;-81
2022/05/06 11:33:00;;;;;;;4.20;3.55;;;;;;;41.37;10.87;101089.44;5058907;28;20511;-81
2022/05/06 11:35:46;;;;;;;5.60;4.43;;;;;;;41.99;10.75;101095.81;5062765;28;20048;-81
2022/05/06 11:38:15;;;;;;;4.68;4.15;;;;;;;42.48;10.05;101090.03;5066404;28;20060;-82
2022/05/06 11:40:42;;;;;;;5.63;5.10;;;;;;;42.61;9.42;101086.66;5064968;28;20060;-81
2022/05/06 11:43:23;;;;;;;5.32;4.13;;;;;;;43.33;9.90;101069.84;5066344;28;20049;-81
2022/05/06 11:48:43;;;;;;;4.93;3.72;;;;;;;44.27;9.65;101075.41;5069872;28;20056;-82
2022/05/06 11:51:13;;;;;;;5.63;4.25;;;;;;;44.26;9.48;101071.66;5070787;28;20060;-82
2022/05/06 11:53:44;;;;;;;5.30;4.55;;;;;;;44.54;9.94;101076.66;5062629;28;20072;-79
2022/05/06 11:56:12;;;;;;;5.30;3.92;;;;;;;44.61;9.48;101066.50;5061856;28;20057;-79
2022/05/06 11:58:40;;;;;;;6.85;4.80;;;;;;;44.62;8.86;101062.22;5061700;28;20121;-81
2022/05/06 12:01:10;;;;;;;5.07;3.90;;;;;;;44.67;9.74;101067.25;5061232;28;20056;-80
2022/05/06 12:03:38;;;;;;;5.82;3.95;;;;;;;45.05;8.84;101055.88;5061231;28;20056;-83
2022/05/06 12:06:07;;;;;;;4.38;3.97;;;;;;;43.70;9.39;101057.06;5064790;28;20056;-82
2022/05/06 12:08:37;;;;;;;4.13;3.72;;;;;;;43.59;9.21;101054.91;5064189;28;20044;-82
2022/05/06 12:11:07;;;;;;;6.30;3.42;;;;;;;43.94;9.04;101060.25;5063096;28;20049;-82
2022/05/06 12:13:38;;;;;;;4.95;3.92;;;;;;;43.01;9.00;101058.31;5065458;28;20048;-82
2022/05/06 12:16:13;;;;;;;5.03;4.53;;;;;;;43.67;8.35;101061.09;5061972;28;20056;-82
2022/05/06 12:18:53;;;;;;;3.67;3.38;;;;;;;43.38;8.93;101049.31;5061802;28;20488;-80
2022/05/06 12:21:24;;;;;;;4.32;3.70;;;;;;;43.21;9.42;101056.47;5068016;28;20060;-81